sensor_id;sensor_type;location;lat;lon;timestamp;temperature;humidity
65752;DHT22;52486;51.098;13.770;2024-01-10T00:01:55;21.40;53.10
65752;DHT22;52486;51.098;13.770;2024-01-10T00:04:20;20.60;52.00
65752;DHT22;52486;51.098;13.770;2024-01-10T00:06:46;22.30;53.70
65752;DHT22;52486;51.098;13.770;2024-01-10T00:09:11;20.60;52.00
65752;DHT22;52486;51.098;13.770;2024-01-10T00:11:37;20.60;52.00
65752;DHT22;52486;51.098;13.770;2024-01-10T00:14:03;20.40;52.60
65752;DHT22;52486;51.098;13.770;2024-01-10T00:16:29;20.70;52.50
65752;DHT22;52486;51.098;13.770;2024-01-10T00:18:54;20.50;52.60
65752;DHT22;52486;51.098;13.770;2024-01-10T00:21:19;22.60;53.60
65752;DHT22;52486;51.098;13.770;2024-01-10T00:23:45;21.40;52.90
65752;DHT22;52486;51.098;13.770;2024-01-10T00:26:11;22.10;53.20
65752;DHT22;52486;51.098;13.770;2024-01-10T00:28:36;21.00;52.00
65752;DHT22;52486;51.098;13.770;2024-01-10T00:31:02;23.20;53.70
65752;DHT22;52486;51.098;13.770;2024-01-10T00:33:28;21.00;52.60
65752;DHT22;52486;51.098;13.770;2024-01-10T00:35:53;20.90;51.80
65752;DHT22;52486;51.098;13.770;2024-01-10T00:38:18;20.80;52.50
65752;DHT22;52486;51.098;13.770;2024-01-10T00:40:44;21.90;53.00
65752;DHT22;52486;51.098;13.770;2024-01-10T00:43:09;20.80;51.60
65752;DHT22;52486;51.098;13.770;2024-01-10T00:45:35;22.50;53.40
65752;DHT22;52486;51.098;13.770;2024-01-10T00:48:00;21.40;52.70
65752;DHT22;52486;51.098;13.770;2024-01-10T00:50:26;20.40;52.20
65752;DHT22;52486;51.098;13.770;2024-01-10T00:52:51;20.70;52.40
65752;DHT22;52486;51.098;13.770;2024-01-10T00:55:17;23.10;53.60
65752;DHT22;52486;51.098;13.770;2024-01-10T00:57:42;20.80;52.30
65752;DHT22;52486;51.098;13.770;2024-01-10T01:00:08;20.80;51.60
65752;DHT22;52486;51.098;13.770;2024-01-10T01:02:34;20.70;51.50
65752;DHT22;52486;51.098;13.770;2024-01-10T01:05:00;20.80;51.70
65752;DHT22;52486;51.098;13.770;2024-01-10T01:07:26;21.90;52.90
65752;DHT22;52486;51.098;13.770;2024-01-10T01:09:51;22.90;53.40
65752;DHT22;52486;51.098;13.770;2024-01-10T01:12:17;20.90;52.30
65752;DHT22;52486;51.098;13.770;2024-01-10T01:14:42;20.80;52.20
65752;DHT22;52486;51.098;13.770;2024-01-10T01:17:08;20.80;51.50
65752;DHT22;52486;51.098;13.770;2024-01-10T01:19:34;22.20;52.80
65752;DHT22;52486;51.098;13.770;2024-01-10T01:21:59;23.40;53.50
65752;DHT22;52486;51.098;13.770;2024-01-10T01:24:25;20.90;52.20
65752;DHT22;52486;51.098;13.770;2024-01-10T01:26:50;20.60;51.40
65752;DHT22;52486;51.098;13.770;2024-01-10T01:29:16;21.00;52.30
65752;DHT22;52486;51.098;13.770;2024-01-10T01:31:41;20.90;51.50
65752;DHT22;52486;51.098;13.770;2024-01-10T01:34:07;23.30;53.50
65752;DHT22;52486;51.098;13.770;2024-01-10T01:36:32;23.10;53.40
65752;DHT22;52486;51.098;13.770;2024-01-10T01:38:59;20.60;51.80
65752;DHT22;52486;51.098;13.770;2024-01-10T01:41:24;23.70;53.60
65752;DHT22;52486;51.098;13.770;2024-01-10T01:43:50;20.60;52.00
65752;DHT22;52486;51.098;13.770;2024-01-10T01:46:15;20.80;51.40
65752;DHT22;52486;51.098;13.770;2024-01-10T01:48:41;20.90;51.40
65752;DHT22;52486;51.098;13.770;2024-01-10T01:51:07;21.10;52.10
65752;DHT22;52486;51.098;13.770;2024-01-10T01:53:33;20.60;51.20
65752;DHT22;52486;51.098;13.770;2024-01-10T01:56:00;20.90;52.00
65752;DHT22;52486;51.098;13.770;2024-01-10T01:58:28;23.50;53.40
65752;DHT22;52486;51.098;13.770;2024-01-10T02:00:54;22.80;53.00
65752;DHT22;52486;51.098;13.770;2024-01-10T02:03:20;22.10;52.50
65752;DHT22;52486;51.098;13.770;2024-01-10T02:05:46;20.90;52.10
65752;DHT22;52486;51.098;13.770;2024-01-10T02:08:12;23.00;53.00
65752;DHT22;52486;51.098;13.770;2024-01-10T02:10:37;20.80;51.90
65752;DHT22;52486;51.098;13.770;2024-01-10T02:13:03;22.50;52.50
65752;DHT22;52486;51.098;13.770;2024-01-10T02:15:29;20.70;51.30
65752;DHT22;52486;51.098;13.770;2024-01-10T02:17:54;21.10;52.20
65752;DHT22;52486;51.098;13.770;2024-01-10T02:20:20;20.70;51.20
65752;DHT22;52486;51.098;13.770;2024-01-10T02:22:48;20.70;50.30
65752;DHT22;52486;51.098;13.770;2024-01-10T02:25:15;22.60;52.80
65752;DHT22;52486;51.098;13.770;2024-01-10T02:27:41;22.50;52.80
65752;DHT22;52486;51.098;13.770;2024-01-10T02:30:07;20.70;51.20
65752;DHT22;52486;51.098;13.770;2024-01-10T02:32:34;20.70;51.60
65752;DHT22;52486;51.098;13.770;2024-01-10T02:34:59;20.60;51.80
65752;DHT22;52486;51.098;13.770;2024-01-10T02:37:25;20.90;52.10
65752;DHT22;52486;51.098;13.770;2024-01-10T02:39:50;20.90;51.20
65752;DHT22;52486;51.098;13.770;2024-01-10T02:42:16;20.80;51.40
65752;DHT22;52486;51.098;13.770;2024-01-10T02:44:42;22.00;52.40
65752;DHT22;52486;51.098;13.770;2024-01-10T02:47:07;21.60;52.30
65752;DHT22;52486;51.098;13.770;2024-01-10T02:49:33;23.70;53.30
65752;DHT22;52486;51.098;13.770;2024-01-10T02:51:59;20.70;51.10
65752;DHT22;52486;51.098;13.770;2024-01-10T02:54:25;23.70;53.50
65752;DHT22;52486;51.098;13.770;2024-01-10T02:56:50;20.90;51.30
65752;DHT22;52486;51.098;13.770;2024-01-10T02:59:16;20.70;51.10
65752;DHT22;52486;51.098;13.770;2024-01-10T03:01:41;23.40;53.30
65752;DHT22;52486;51.098;13.770;2024-01-10T03:04:07;20.90;51.20
65752;DHT22;52486;51.098;13.770;2024-01-10T03:06:32;22.90;53.10
65752;DHT22;52486;51.098;13.770;2024-01-10T03:08:58;21.20;52.00
65752;DHT22;52486;51.098;13.770;2024-01-10T03:11:23;20.80;51.80
65752;DHT22;52486;51.098;13.770;2024-01-10T03:13:50;20.80;51.10
65752;DHT22;52486;51.098;13.770;2024-01-10T03:16:16;23.10;52.90
65752;DHT22;52486;51.098;13.770;2024-01-10T03:18:42;23.50;53.10
65752;DHT22;52486;51.098;13.770;2024-01-10T03:21:08;20.80;51.20
65752;DHT22;52486;51.098;13.770;2024-01-10T03:23:33;20.80;51.10
65752;DHT22;52486;51.098;13.770;2024-01-10T03:25:59;20.60;51.70
65752;DHT22;52486;51.098;13.770;2024-01-10T03:28:24;21.10;52.70
65752;DHT22;52486;51.098;13.770;2024-01-10T03:30:50;23.60;53.40
65752;DHT22;52486;51.098;13.770;2024-01-10T03:33:16;21.10;51.80
65752;DHT22;52486;51.098;13.770;2024-01-10T03:35:41;22.30;53.30
65752;DHT22;52486;51.098;13.770;2024-01-10T03:38:07;20.80;51.10
65752;DHT22;52486;51.098;13.770;2024-01-10T03:40:33;20.50;51.20
65752;DHT22;52486;51.098;13.770;2024-01-10T03:42:58;23.60;53.40
65752;DHT22;52486;51.098;13.770;2024-01-10T03:45:24;23.40;53.20
65752;DHT22;52486;51.098;13.770;2024-01-10T03:47:49;20.80;51.90
65752;DHT22;52486;51.098;13.770;2024-01-10T03:50:19;20.80;51.80
65752;DHT22;52486;51.098;13.770;2024-01-10T03:52:45;21.00;49.60
65752;DHT22;52486;51.098;13.770;2024-01-10T03:55:14;20.60;51.60
65752;DHT22;52486;51.098;13.770;2024-01-10T03:57:40;20.90;49.50
65752;DHT22;52486;51.098;13.770;2024-01-10T04:00:06;20.60;51.20
65752;DHT22;52486;51.098;13.770;2024-01-10T04:02:32;20.60;50.90
65752;DHT22;52486;51.098;13.770;2024-01-10T04:04:58;20.90;51.50
65752;DHT22;52486;51.098;13.770;2024-01-10T04:07:23;20.70;51.00
65752;DHT22;52486;51.098;13.770;2024-01-10T04:09:49;20.60;51.10
65752;DHT22;52486;51.098;13.770;2024-01-10T04:12:14;20.50;50.90
65752;DHT22;52486;51.098;13.770;2024-01-10T04:14:40;20.60;51.70
65752;DHT22;52486;51.098;13.770;2024-01-10T04:17:05;20.50;51.50
65752;DHT22;52486;51.098;13.770;2024-01-10T04:19:32;20.70;51.50
65752;DHT22;52486;51.098;13.770;2024-01-10T04:21:58;20.60;51.00
65752;DHT22;52486;51.098;13.770;2024-01-10T04:24:23;22.80;52.80
65752;DHT22;52486;51.098;13.770;2024-01-10T04:26:49;20.50;51.60
65752;DHT22;52486;51.098;13.770;2024-01-10T04:29:14;20.60;51.70
65752;DHT22;52486;51.098;13.770;2024-01-10T04:31:40;20.60;50.90
65752;DHT22;52486;51.098;13.770;2024-01-10T04:34:06;20.60;51.00
65752;DHT22;52486;51.098;13.770;2024-01-10T04:36:32;20.50;51.50
65752;DHT22;52486;51.098;13.770;2024-01-10T04:38:57;20.50;51.00
65752;DHT22;52486;51.098;13.770;2024-01-10T04:41:23;23.40;53.20
65752;DHT22;52486;51.098;13.770;2024-01-10T04:43:48;20.50;50.90
65752;DHT22;52486;51.098;13.770;2024-01-10T04:46:14;20.50;50.90
65752;DHT22;52486;51.098;13.770;2024-01-10T04:48:39;20.40;50.90
65752;DHT22;52486;51.098;13.770;2024-01-10T04:51:05;20.50;50.90
65752;DHT22;52486;51.098;13.770;2024-01-10T04:53:30;20.50;50.90
65752;DHT22;52486;51.098;13.770;2024-01-10T04:55:56;20.70;51.70
65752;DHT22;52486;51.098;13.770;2024-01-10T04:58:21;20.80;51.90
65752;DHT22;52486;51.098;13.770;2024-01-10T05:00:47;20.50;51.00
65752;DHT22;52486;51.098;13.770;2024-01-10T05:03:12;20.80;51.60
65752;DHT22;52486;51.098;13.770;2024-01-10T05:05:38;20.40;51.50
65752;DHT22;52486;51.098;13.770;2024-01-10T05:08:04;20.50;51.20
65752;DHT22;52486;51.098;13.770;2024-01-10T05:10:30;20.70;51.00
65752;DHT22;52486;51.098;13.770;2024-01-10T05:12:55;21.50;52.20
65752;DHT22;52486;51.098;13.770;2024-01-10T05:15:21;21.00;52.00
65752;DHT22;52486;51.098;13.770;2024-01-10T05:17:46;20.50;50.90
65752;DHT22;52486;51.098;13.770;2024-01-10T05:20:12;20.40;50.90
65752;DHT22;52486;51.098;13.770;2024-01-10T05:22:39;20.50;51.00
65752;DHT22;52486;51.098;13.770;2024-01-10T05:25:05;20.40;50.90
65752;DHT22;52486;51.098;13.770;2024-01-10T05:27:31;20.50;51.00
65752;DHT22;52486;51.098;13.770;2024-01-10T05:29:56;20.20;51.80
65752;DHT22;52486;51.098;13.770;2024-01-10T05:32:22;20.50;52.00
65752;DHT22;52486;51.098;13.770;2024-01-10T05:34:47;22.70;52.90
65752;DHT22;52486;51.098;13.770;2024-01-10T05:37:13;20.70;51.80
65752;DHT22;52486;51.098;13.770;2024-01-10T05:39:38;20.30;51.00
65752;DHT22;52486;51.098;13.770;2024-01-10T05:42:04;20.50;51.20
65752;DHT22;52486;51.098;13.770;2024-01-10T05:44:30;20.60;51.70
65752;DHT22;52486;51.098;13.770;2024-01-10T05:46:56;21.40;52.40
65752;DHT22;52486;51.098;13.770;2024-01-10T05:49:25;23.00;53.00
65752;DHT22;52486;51.098;13.770;2024-01-10T05:51:50;20.90;51.90
65752;DHT22;52486;51.098;13.770;2024-01-10T05:54:16;20.40;51.10
65752;DHT22;52486;51.098;13.770;2024-01-10T05:56:43;22.80;52.90
65752;DHT22;52486;51.098;13.770;2024-01-10T05:59:08;20.40;51.10
65752;DHT22;52486;51.098;13.770;2024-01-10T06:01:34;20.50;51.20
65752;DHT22;52486;51.098;13.770;2024-01-10T06:03:59;20.60;52.00
65752;DHT22;52486;51.098;13.770;2024-01-10T06:06:26;20.40;51.10
65752;DHT22;52486;51.098;13.770;2024-01-10T06:08:51;22.90;53.10
65752;DHT22;52486;51.098;13.770;2024-01-10T06:11:17;23.00;53.20
65752;DHT22;52486;51.098;13.770;2024-01-10T06:13:43;21.00;52.00
65752;DHT22;52486;51.098;13.770;2024-01-10T06:16:08;23.10;53.20
65752;DHT22;52486;51.098;13.770;2024-01-10T06:18:34;20.90;51.90
65752;DHT22;52486;51.098;13.770;2024-01-10T06:20:59;22.90;53.20
65752;DHT22;52486;51.098;13.770;2024-01-10T06:23:25;20.80;52.10
65752;DHT22;52486;51.098;13.770;2024-01-10T06:25:50;20.30;51.80
65752;DHT22;52486;51.098;13.770;2024-01-10T06:28:16;20.10;47.90
65752;DHT22;52486;51.098;13.770;2024-01-10T06:30:41;20.60;46.30
65752;DHT22;52486;51.098;13.770;2024-01-10T06:33:07;19.60;45.00
65752;DHT22;52486;51.098;13.770;2024-01-10T06:35:33;19.40;44.60
65752;DHT22;52486;51.098;13.770;2024-01-10T06:37:59;18.90;43.30
65752;DHT22;52486;51.098;13.770;2024-01-10T06:40:25;18.50;46.70
65752;DHT22;52486;51.098;13.770;2024-01-10T06:42:50;18.50;49.80
65752;DHT22;52486;51.098;13.770;2024-01-10T06:45:16;18.60;50.40
65752;DHT22;52486;51.098;13.770;2024-01-10T06:47:41;18.70;50.80
65752;DHT22;52486;51.098;13.770;2024-01-10T06:50:07;18.70;51.00
65752;DHT22;52486;51.098;13.770;2024-01-10T06:52:34;19.00;51.10
65752;DHT22;52486;51.098;13.770;2024-01-10T06:54:59;18.90;51.10
65752;DHT22;52486;51.098;13.770;2024-01-10T06:57:25;22.00;53.40
65752;DHT22;52486;51.098;13.770;2024-01-10T06:59:52;21.40;52.90
65752;DHT22;52486;51.098;13.770;2024-01-10T07:02:17;19.20;51.10
65752;DHT22;52486;51.098;13.770;2024-01-10T07:04:43;19.10;51.00
65752;DHT22;52486;51.098;13.770;2024-01-10T07:07:08;19.50;51.80
65752;DHT22;52486;51.098;13.770;2024-01-10T07:09:34;19.40;51.00
65752;DHT22;52486;51.098;13.770;2024-01-10T07:11:59;19.40;51.00
65752;DHT22;52486;51.098;13.770;2024-01-10T07:14:25;22.40;53.20
65752;DHT22;52486;51.098;13.770;2024-01-10T07:16:50;19.40;50.90
65752;DHT22;52486;51.098;13.770;2024-01-10T07:19:17;19.20;51.30
65752;DHT22;52486;51.098;13.770;2024-01-10T07:21:42;19.40;50.80
65752;DHT22;52486;51.098;13.770;2024-01-10T07:24:08;19.50;50.90
65752;DHT22;52486;51.098;13.770;2024-01-10T07:26:35;22.10;53.00
65752;DHT22;52486;51.098;13.770;2024-01-10T07:29:01;19.50;51.30
65752;DHT22;52486;51.098;13.770;2024-01-10T07:31:28;19.60;51.20
65752;DHT22;52486;51.098;13.770;2024-01-10T07:33:57;19.60;51.70
65752;DHT22;52486;51.098;13.770;2024-01-10T07:36:23;19.60;49.50
65752;DHT22;52486;51.098;13.770;2024-01-10T07:38:49;22.40;53.10
65752;DHT22;52486;51.098;13.770;2024-01-10T07:41:14;21.30;52.70
65752;DHT22;52486;51.098;13.770;2024-01-10T07:43:40;20.30;52.10
65752;DHT22;52486;51.098;13.770;2024-01-10T07:46:05;19.80;51.60
65752;DHT22;52486;51.098;13.770;2024-01-10T07:48:31;19.60;51.20
65752;DHT22;52486;51.098;13.770;2024-01-10T07:50:57;19.60;51.00
65752;DHT22;52486;51.098;13.770;2024-01-10T07:53:22;19.70;50.90
65752;DHT22;52486;51.098;13.770;2024-01-10T07:55:50;19.80;51.80
65752;DHT22;52486;51.098;13.770;2024-01-10T07:58:16;19.90;53.10
65752;DHT22;52486;51.098;13.770;2024-01-10T08:00:42;20.00;51.70
65752;DHT22;52486;51.098;13.770;2024-01-10T08:03:07;23.10;54.00
65752;DHT22;52486;51.098;13.770;2024-01-10T08:05:33;23.20;53.90
65752;DHT22;52486;51.098;13.770;2024-01-10T08:07:59;20.40;52.50
65752;DHT22;52486;51.098;13.770;2024-01-10T08:10:24;23.60;53.70
65752;DHT22;52486;51.098;13.770;2024-01-10T08:12:50;23.20;53.40
65752;DHT22;52486;51.098;13.770;2024-01-10T08:15:18;20.80;51.60
65752;DHT22;52486;51.098;13.770;2024-01-10T08:17:45;20.80;51.00
65752;DHT22;52486;51.098;13.770;2024-01-10T08:20:10;23.90;53.40
65752;DHT22;52486;51.098;13.770;2024-01-10T08:22:36;21.30;51.70
65752;DHT22;52486;51.098;13.770;2024-01-10T08:25:03;20.80;50.50
65752;DHT22;52486;51.098;13.770;2024-01-10T08:27:28;21.00;50.70
65752;DHT22;52486;51.098;13.770;2024-01-10T08:29:54;21.70;51.20
65752;DHT22;52486;51.098;13.770;2024-01-10T08:32:19;23.60;52.60
65752;DHT22;52486;51.098;13.770;2024-01-10T08:34:47;21.50;50.70
65752;DHT22;52486;51.098;13.770;2024-01-10T08:37:14;21.60;50.40
65752;DHT22;52486;51.098;13.770;2024-01-10T08:39:39;21.50;50.30
65752;DHT22;52486;51.098;13.770;2024-01-10T08:42:05;23.90;51.50
65752;DHT22;52486;51.098;13.770;2024-01-10T08:44:31;21.60;49.60
65752;DHT22;52486;51.098;13.770;2024-01-10T08:46:57;21.60;47.70
65752;DHT22;52486;51.098;13.770;2024-01-10T08:49:23;21.40;49.20
65752;DHT22;52486;51.098;13.770;2024-01-10T08:51:48;22.60;50.40
65752;DHT22;52486;51.098;13.770;2024-01-10T08:54:14;21.70;49.60
65752;DHT22;52486;51.098;13.770;2024-01-10T08:56:45;21.70;49.50
65752;DHT22;52486;51.098;13.770;2024-01-10T08:59:11;21.90;47.30
65752;DHT22;52486;51.098;13.770;2024-01-10T09:01:36;21.70;49.60
65752;DHT22;52486;51.098;13.770;2024-01-10T09:04:04;21.80;49.20
65752;DHT22;52486;51.098;13.770;2024-01-10T09:06:31;21.90;49.30
65752;DHT22;52486;51.098;13.770;2024-01-10T09:08:56;22.10;49.30
65752;DHT22;52486;51.098;13.770;2024-01-10T09:11:22;22.10;49.30
65752;DHT22;52486;51.098;13.770;2024-01-10T09:13:47;21.90;48.50
65752;DHT22;52486;51.098;13.770;2024-01-10T09:16:14;22.30;48.60
65752;DHT22;52486;51.098;13.770;2024-01-10T09:18:40;22.20;49.10
65752;DHT22;52486;51.098;13.770;2024-01-10T09:21:06;22.50;48.00
65752;DHT22;52486;51.098;13.770;2024-01-10T09:23:31;22.30;48.70
65752;DHT22;52486;51.098;13.770;2024-01-10T09:25:57;22.30;50.30
65752;DHT22;52486;51.098;13.770;2024-01-10T09:28:22;24.90;51.50
65752;DHT22;52486;51.098;13.770;2024-01-10T09:30:48;22.80;49.80
65752;DHT22;52486;51.098;13.770;2024-01-10T09:33:14;22.50;49.40
65752;DHT22;52486;51.098;13.770;2024-01-10T09:35:40;22.70;48.70
65752;DHT22;52486;51.098;13.770;2024-01-10T09:38:05;22.40;48.50
65752;DHT22;52486;51.098;13.770;2024-01-10T09:40:31;22.70;48.60
65752;DHT22;52486;51.098;13.770;2024-01-10T09:42:57;22.50;49.90
65752;DHT22;52486;51.098;13.770;2024-01-10T09:45:23;23.00;51.20
65752;DHT22;52486;51.098;13.770;2024-01-10T09:47:52;22.70;50.10
65752;DHT22;52486;51.098;13.770;2024-01-10T09:50:17;23.00;49.30
65752;DHT22;52486;51.098;13.770;2024-01-10T09:52:50;23.10;48.60
65752;DHT22;52486;51.098;13.770;2024-01-10T09:55:16;23.30;46.30
65752;DHT22;52486;51.098;13.770;2024-01-10T09:57:42;23.10;48.40
65752;DHT22;52486;51.098;13.770;2024-01-10T10:00:11;23.00;48.30
65752;DHT22;52486;51.098;13.770;2024-01-10T10:02:37;23.10;47.70
65752;DHT22;52486;51.098;13.770;2024-01-10T10:05:04;23.10;49.30
65752;DHT22;52486;51.098;13.770;2024-01-10T10:07:42;23.30;48.00
65752;DHT22;52486;51.098;13.770;2024-01-10T10:10:08;23.50;48.10
65752;DHT22;52486;51.098;13.770;2024-01-10T10:15:13;23.60;45.90
65752;DHT22;52486;51.098;13.770;2024-01-10T10:17:39;23.60;47.90
65752;DHT22;52486;51.098;13.770;2024-01-10T10:20:12;23.70;48.10
65752;DHT22;52486;51.098;13.770;2024-01-10T10:22:39;23.50;47.70
65752;DHT22;52486;51.098;13.770;2024-01-10T10:25:04;26.50;49.70
65752;DHT22;52486;51.098;13.770;2024-01-10T10:27:30;24.00;48.20
65752;DHT22;52486;51.098;13.770;2024-01-10T10:29:56;23.80;48.40
65752;DHT22;52486;51.098;13.770;2024-01-10T10:32:21;23.90;47.90
65752;DHT22;52486;51.098;13.770;2024-01-10T10:34:47;24.00;47.80
65752;DHT22;52486;51.098;13.770;2024-01-10T10:37:12;24.80;48.80
65752;DHT22;52486;51.098;13.770;2024-01-10T10:39:38;24.00;48.00
65752;DHT22;52486;51.098;13.770;2024-01-10T10:42:03;23.70;47.50
65752;DHT22;52486;51.098;13.770;2024-01-10T10:44:29;23.70;47.40
65752;DHT22;52486;51.098;13.770;2024-01-10T10:46:58;24.20;47.80
65752;DHT22;52486;51.098;13.770;2024-01-10T10:49:28;24.00;48.00
65752;DHT22;52486;51.098;13.770;2024-01-10T10:51:57;23.90;47.50
65752;DHT22;52486;51.098;13.770;2024-01-10T10:54:23;25.70;48.80
65752;DHT22;52486;51.098;13.770;2024-01-10T10:56:50;23.80;47.30
65752;DHT22;52486;51.098;13.770;2024-01-10T10:59:17;23.70;47.60
65752;DHT22;52486;51.098;13.770;2024-01-10T11:01:44;23.80;47.50
65752;DHT22;52486;51.098;13.770;2024-01-10T11:04:11;23.80;47.40
65752;DHT22;52486;51.098;13.770;2024-01-10T11:06:39;23.80;47.50
65752;DHT22;52486;51.098;13.770;2024-01-10T11:09:06;23.60;47.40
65752;DHT22;52486;51.098;13.770;2024-01-10T11:11:51;23.70;47.10
65752;DHT22;52486;51.098;13.770;2024-01-10T11:24:49;23.80;45.20
65752;DHT22;52486;51.098;13.770;2024-01-10T11:27:16;26.30;49.00
65752;DHT22;52486;51.098;13.770;2024-01-10T11:29:41;23.70;47.10
65752;DHT22;52486;51.098;13.770;2024-01-10T11:32:14;23.60;47.10
65752;DHT22;52486;51.098;13.770;2024-01-10T11:35:40;24.10;45.00
65752;DHT22;52486;51.098;13.770;2024-01-10T11:37:42;23.90;45.40
65752;DHT22;52486;51.098;13.770;2024-01-10T11:40:08;23.70;45.30
65752;DHT22;52486;51.098;13.770;2024-01-10T11:42:43;24.10;47.50
65752;DHT22;52486;51.098;13.770;2024-01-10T11:45:09;24.10;47.70
65752;DHT22;52486;51.098;13.770;2024-01-10T11:47:38;24.70;48.60
65752;DHT22;52486;51.098;13.770;2024-01-10T11:50:04;24.10;47.30
65752;DHT22;52486;51.098;13.770;2024-01-10T11:52:33;24.00;48.50
65752;DHT22;52486;51.098;13.770;2024-01-10T11:54:59;24.00;47.90
65752;DHT22;52486;51.098;13.770;2024-01-10T11:57:28;24.10;48.60
65752;DHT22;52486;51.098;13.770;2024-01-10T11:59:54;23.80;48.50
65752;DHT22;52486;51.098;13.770;2024-01-10T12:02:21;24.10;48.40
65752;DHT22;52486;51.098;13.770;2024-01-10T12:04:47;24.20;48.20
65752;DHT22;52486;51.098;13.770;2024-01-10T12:07:13;24.20;47.90
65752;DHT22;52486;51.098;13.770;2024-01-10T12:09:39;24.30;47.70
65752;DHT22;52486;51.098;13.770;2024-01-10T12:12:05;27.30;50.50
65752;DHT22;52486;51.098;13.770;2024-01-10T12:14:31;24.20;47.90
65752;DHT22;52486;51.098;13.770;2024-01-10T12:16:57;24.00;48.80
65752;DHT22;52486;51.098;13.770;2024-01-10T12:19:22;24.30;49.70
65752;DHT22;52486;51.098;13.770;2024-01-10T12:21:48;26.70;49.50
65752;DHT22;52486;51.098;13.770;2024-01-10T12:24:14;24.60;47.80
65752;DHT22;52486;51.098;13.770;2024-01-10T12:26:43;24.30;48.90
65752;DHT22;52486;51.098;13.770;2024-01-10T12:29:09;24.50;45.20
65752;DHT22;52486;51.098;13.770;2024-01-10T12:31:35;24.70;47.50
65752;DHT22;52486;51.098;13.770;2024-01-10T12:34:02;24.30;48.00
65752;DHT22;52486;51.098;13.770;2024-01-10T12:36:30;24.50;48.00
65752;DHT22;52486;51.098;13.770;2024-01-10T12:38:56;24.50;43.70
65752;DHT22;52486;51.098;13.770;2024-01-10T12:41:22;24.40;45.70
65752;DHT22;52486;51.098;13.770;2024-01-10T12:43:53;24.50;46.30
65752;DHT22;52486;51.098;13.770;2024-01-10T12:46:22;24.30;44.10
65752;DHT22;52486;51.098;13.770;2024-01-10T12:49:03;24.50;46.60
65752;DHT22;52486;51.098;13.770;2024-01-10T12:51:30;24.50;44.60
65752;DHT22;52486;51.098;13.770;2024-01-10T12:53:57;25.70;47.70
65752;DHT22;52486;51.098;13.770;2024-01-10T12:56:26;24.50;46.80
65752;DHT22;52486;51.098;13.770;2024-01-10T12:58:51;24.40;47.10
65752;DHT22;52486;51.098;13.770;2024-01-10T13:01:17;24.50;46.90
65752;DHT22;52486;51.098;13.770;2024-01-10T13:03:43;24.50;46.90
65752;DHT22;52486;51.098;13.770;2024-01-10T13:06:08;24.50;46.80
65752;DHT22;52486;51.098;13.770;2024-01-10T13:08:34;24.40;47.00
65752;DHT22;52486;51.098;13.770;2024-01-10T13:10:59;24.80;47.30
65752;DHT22;52486;51.098;13.770;2024-01-10T13:13:25;24.50;47.10
65752;DHT22;52486;51.098;13.770;2024-01-10T13:15:50;24.50;47.80
65752;DHT22;52486;51.098;13.770;2024-01-10T13:18:16;24.70;47.60
65752;DHT22;52486;51.098;13.770;2024-01-10T13:20:43;23.10;46.30
65752;DHT22;52486;51.098;13.770;2024-01-10T13:23:08;24.50;47.20
65752;DHT22;52486;51.098;13.770;2024-01-10T13:25:34;24.80;47.40
65752;DHT22;52486;51.098;13.770;2024-01-10T13:28:00;24.30;46.80
65752;DHT22;52486;51.098;13.770;2024-01-10T13:30:26;24.70;46.90
65752;DHT22;52486;51.098;13.770;2024-01-10T13:32:51;24.50;47.10
65752;DHT22;52486;51.098;13.770;2024-01-10T13:35:17;24.50;47.00
65752;DHT22;52486;51.098;13.770;2024-01-10T13:37:42;24.80;47.50
65752;DHT22;52486;51.098;13.770;2024-01-10T13:40:09;24.50;48.10
65752;DHT22;52486;51.098;13.770;2024-01-10T13:42:43;24.30;43.70
65752;DHT22;52486;51.098;13.770;2024-01-10T13:45:09;23.50;39.60
65752;DHT22;52486;51.098;13.770;2024-01-10T13:47:38;22.70;40.90
65752;DHT22;52486;51.098;13.770;2024-01-10T13:50:05;22.90;43.00
65752;DHT22;52486;51.098;13.770;2024-01-10T13:52:31;21.50;41.10
65752;DHT22;52486;51.098;13.770;2024-01-10T13:54:57;21.60;42.20
65752;DHT22;52486;51.098;13.770;2024-01-10T13:57:22;21.00;42.00
65752;DHT22;52486;51.098;13.770;2024-01-10T13:59:48;21.10;42.50
65752;DHT22;52486;51.098;13.770;2024-01-10T14:02:14;22.60;43.40
65752;DHT22;52486;51.098;13.770;2024-01-10T14:04:40;20.90;43.60
65752;DHT22;52486;51.098;13.770;2024-01-10T14:07:05;22.50;46.60
65752;DHT22;52486;51.098;13.770;2024-01-10T14:09:31;21.60;45.20
65752;DHT22;52486;51.098;13.770;2024-01-10T14:11:56;22.20;47.20
65752;DHT22;52486;51.098;13.770;2024-01-10T14:14:22;22.30;47.60
65752;DHT22;52486;51.098;13.770;2024-01-10T14:16:47;23.10;47.10
65752;DHT22;52486;51.098;13.770;2024-01-10T14:19:13;23.60;48.20
65752;DHT22;52486;51.098;13.770;2024-01-10T14:21:39;23.30;48.20
65752;DHT22;52486;51.098;13.770;2024-01-10T14:24:04;23.20;47.80
65752;DHT22;52486;51.098;13.770;2024-01-10T14:26:30;25.00;48.80
65752;DHT22;52486;51.098;13.770;2024-01-10T14:28:55;23.20;47.80
65752;DHT22;52486;51.098;13.770;2024-01-10T14:31:22;23.50;47.30
65752;DHT22;52486;51.098;13.770;2024-01-10T14:33:47;23.40;47.50
65752;DHT22;52486;51.098;13.770;2024-01-10T14:36:13;23.40;47.60
65752;DHT22;52486;51.098;13.770;2024-01-10T14:38:39;23.50;48.10
65752;DHT22;52486;51.098;13.770;2024-01-10T14:41:05;23.70;47.50
65752;DHT22;52486;51.098;13.770;2024-01-10T14:43:31;23.70;46.80
65752;DHT22;52486;51.098;13.770;2024-01-10T14:45:57;23.60;46.90
65752;DHT22;52486;51.098;13.770;2024-01-10T14:48:23;24.00;47.60
65752;DHT22;52486;51.098;13.770;2024-01-10T14:50:48;26.20;48.00
65752;DHT22;52486;51.098;13.770;2024-01-10T14:53:14;23.80;47.00
65752;DHT22;52486;51.098;13.770;2024-01-10T14:55:39;23.70;46.70
65752;DHT22;52486;51.098;13.770;2024-01-10T14:58:05;26.90;48.70
65752;DHT22;52486;51.098;13.770;2024-01-10T15:00:32;27.20;48.60
65752;DHT22;52486;51.098;13.770;2024-01-10T15:02:57;24.10;47.70
65752;DHT22;52486;51.098;13.770;2024-01-10T15:05:23;23.80;47.40
65752;DHT22;52486;51.098;13.770;2024-01-10T15:07:52;24.00;47.00
65752;DHT22;52486;51.098;13.770;2024-01-10T15:10:18;24.10;45.40
65752;DHT22;52486;51.098;13.770;2024-01-10T15:12:44;24.00;47.70
65752;DHT22;52486;51.098;13.770;2024-01-10T15:15:09;24.00;47.30
65752;DHT22;52486;51.098;13.770;2024-01-10T15:17:36;24.10;47.10
65752;DHT22;52486;51.098;13.770;2024-01-10T15:20:01;23.90;47.30
65752;DHT22;52486;51.098;13.770;2024-01-10T15:22:27;24.20;47.40